Terminal Aerodrome Forecast
Issued by NWS

Home | Current Version | Previous Version | Text Only | Print | Product List | Glossary On
Versions: 1 2 3 4 5 6 7 8 9 10 11 12 13 14 15 16 17 18 19 20 21 22 23
000
FTUS46 KEKA 220539
TAFCEC
TAF
KCEC 220539Z 2206/2306 17006KT P6SM OVC008
      TEMPO 2206/2208 OVC004
     FM220800 17004KT 3SM BR OVC004
     FM221100 VRB03KT 1SM BR OVC002
     FM221700 20005KT 4SM BR OVC004
     FM222200 20008KT P6SM OVC008=

USA.gov is the U.S. government's official web portal to all federal, state and local government web resources and services.